Blythe, California
Current Conditions -  °F | °C
As of 12:52 PM on Thursday 23 Oct 2014 (Local Time) from KBLH Reporting Station
Clear Clear  
Wind Chill: 91°   Ceiling: Unl
Heat Index: 91°   Visibility: 10mi
Dew Point: 44°   Wind: 5mph
Humidity: 20%   Direction: 100°E
Pressure: 29.95"   Gusts: NA
Location:  33.61°N, 114.59°W
Report Text: KBLH 231952Z AUTO 10004KT 10SM CLR 33/07 A2995 RMK AO2 SLP136 T03280067
Loading
Personal Weather Stations






























Interactive Weather Map
Tropical Storm Tracking
New forecast layout! Learn more

10-Day Weather Forecast

Advertisements
Track Severe Weather on mobile